sensor_id;sensor_type;location;lat;lon;timestamp;P1;durP1;ratioP1;P2;durP2;ratioP2
2906;SDS011;1463;51.070;16.998;2023-04-29T00:01:38;8.32;;;5.53;;
2906;SDS011;1463;51.070;16.998;2023-04-29T00:04:05;9.82;;;6.13;;
2906;SDS011;1463;51.070;16.998;2023-04-29T00:06:33;7.03;;;5.03;;
2906;SDS011;1463;51.070;16.998;2023-04-29T00:09:01;10.15;;;5.43;;
2906;SDS011;1463;51.070;16.998;2023-04-29T00:11:29;10.73;;;5.47;;
2906;SDS011;1463;51.070;16.998;2023-04-29T00:13:57;8.20;;;5.38;;
2906;SDS011;1463;51.070;16.998;2023-04-29T00:16:24;9.02;;;5.35;;
2906;SDS011;1463;51.070;16.998;2023-04-29T00:18:53;10.90;;;5.20;;
2906;SDS011;1463;51.070;16.998;2023-04-29T00:21:20;8.35;;;5.38;;
2906;SDS011;1463;51.070;16.998;2023-04-29T00:23:48;10.30;;;5.15;;
2906;SDS011;1463;51.070;16.998;2023-04-29T00:26:16;7.95;;;5.38;;
2906;SDS011;1463;51.070;16.998;2023-04-29T00:28:43;9.10;;;5.65;;
2906;SDS011;1463;51.070;16.998;2023-04-29T00:31:11;9.35;;;4.55;;
2906;SDS011;1463;51.070;16.998;2023-04-29T00:33:39;9.65;;;4.78;;
2906;SDS011;1463;51.070;16.998;2023-04-29T00:36:08;9.07;;;4.90;;
2906;SDS011;1463;51.070;16.998;2023-04-29T00:38:35;10.23;;;5.28;;
2906;SDS011;1463;51.070;16.998;2023-04-29T00:41:03;9.00;;;5.40;;
2906;SDS011;1463;51.070;16.998;2023-04-29T00:43:30;7.15;;;5.45;;
2906;SDS011;1463;51.070;16.998;2023-04-29T00:45:58;11.23;;;5.85;;
2906;SDS011;1463;51.070;16.998;2023-04-29T00:48:25;13.05;;;5.68;;
2906;SDS011;1463;51.070;16.998;2023-04-29T00:50:52;9.50;;;5.45;;
2906;SDS011;1463;51.070;16.998;2023-04-29T00:53:22;7.55;;;4.93;;
2906;SDS011;1463;51.070;16.998;2023-04-29T00:55:49;12.65;;;6.28;;
2906;SDS011;1463;51.070;16.998;2023-04-29T00:58:17;6.47;;;5.25;;
2906;SDS011;1463;51.070;16.998;2023-04-29T01:00:44;7.55;;;5.72;;
2906;SDS011;1463;51.070;16.998;2023-04-29T01:03:13;7.60;;;5.85;;
2906;SDS011;1463;51.070;16.998;2023-04-29T01:05:41;9.73;;;5.13;;
2906;SDS011;1463;51.070;16.998;2023-04-29T01:08:15;10.38;;;6.47;;
2906;SDS011;1463;51.070;16.998;2023-04-29T01:10:58;9.52;;;6.47;;
2906;SDS011;1463;51.070;16.998;2023-04-29T01:13:34;10.07;;;5.28;;
2906;SDS011;1463;51.070;16.998;2023-04-29T01:16:10;8.82;;;6.07;;
2906;SDS011;1463;51.070;16.998;2023-04-29T01:18:45;9.90;;;5.65;;
2906;SDS011;1463;51.070;16.998;2023-04-29T01:21:16;7.70;;;5.65;;
2906;SDS011;1463;51.070;16.998;2023-04-29T01:23:46;8.15;;;5.95;;
2906;SDS011;1463;51.070;16.998;2023-04-29T01:26:17;13.15;;;6.10;;
2906;SDS011;1463;51.070;16.998;2023-04-29T01:28:46;9.13;;;6.07;;
2906;SDS011;1463;51.070;16.998;2023-04-29T01:31:23;8.25;;;5.80;;
2906;SDS011;1463;51.070;16.998;2023-04-29T01:34:04;11.20;;;6.85;;
2906;SDS011;1463;51.070;16.998;2023-04-29T01:36:38;9.00;;;6.50;;
2906;SDS011;1463;51.070;16.998;2023-04-29T01:39:15;9.98;;;6.80;;
2906;SDS011;1463;51.070;16.998;2023-04-29T01:41:50;8.18;;;5.45;;
2906;SDS011;1463;51.070;16.998;2023-04-29T01:44:26;9.30;;;6.03;;
2906;SDS011;1463;51.070;16.998;2023-04-29T01:46:55;9.52;;;6.00;;
2906;SDS011;1463;51.070;16.998;2023-04-29T01:49:25;9.98;;;6.75;;
2906;SDS011;1463;51.070;16.998;2023-04-29T01:51:53;18.55;;;7.30;;
2906;SDS011;1463;51.070;16.998;2023-04-29T01:54:22;9.52;;;6.90;;
2906;SDS011;1463;51.070;16.998;2023-04-29T01:56:50;10.65;;;6.32;;
2906;SDS011;1463;51.070;16.998;2023-04-29T01:59:17;10.98;;;6.80;;
2906;SDS011;1463;51.070;16.998;2023-04-29T02:01:45;13.55;;;7.15;;
2906;SDS011;1463;51.070;16.998;2023-04-29T02:04:12;13.55;;;6.88;;
2906;SDS011;1463;51.070;16.998;2023-04-29T02:06:40;14.63;;;6.90;;
2906;SDS011;1463;51.070;16.998;2023-04-29T02:09:07;11.98;;;7.95;;
2906;SDS011;1463;51.070;16.998;2023-04-29T02:11:36;11.18;;;6.45;;
2906;SDS011;1463;51.070;16.998;2023-04-29T02:14:04;10.13;;;6.60;;
2906;SDS011;1463;51.070;16.998;2023-04-29T02:16:31;11.60;;;7.15;;
2906;SDS011;1463;51.070;16.998;2023-04-29T02:18:59;7.57;;;6.40;;
2906;SDS011;1463;51.070;16.998;2023-04-29T02:21:26;10.48;;;5.97;;
2906;SDS011;1463;51.070;16.998;2023-04-29T02:23:53;12.38;;;7.45;;
2906;SDS011;1463;51.070;16.998;2023-04-29T02:26:21;12.02;;;7.50;;
2906;SDS011;1463;51.070;16.998;2023-04-29T02:28:50;10.88;;;6.90;;
2906;SDS011;1463;51.070;16.998;2023-04-29T02:31:17;16.48;;;8.05;;
2906;SDS011;1463;51.070;16.998;2023-04-29T02:33:45;11.82;;;8.50;;
2906;SDS011;1463;51.070;16.998;2023-04-29T02:36:13;10.25;;;7.30;;
2906;SDS011;1463;51.070;16.998;2023-04-29T02:38:40;16.45;;;6.75;;
2906;SDS011;1463;51.070;16.998;2023-04-29T02:41:07;11.98;;;7.28;;
2906;SDS011;1463;51.070;16.998;2023-04-29T02:43:35;12.00;;;6.90;;
2906;SDS011;1463;51.070;16.998;2023-04-29T02:46:04;8.75;;;7.22;;
2906;SDS011;1463;51.070;16.998;2023-04-29T02:48:31;9.60;;;6.60;;
2906;SDS011;1463;51.070;16.998;2023-04-29T02:50:59;9.45;;;6.82;;
2906;SDS011;1463;51.070;16.998;2023-04-29T02:53:26;11.88;;;6.53;;
2906;SDS011;1463;51.070;16.998;2023-04-29T02:55:53;15.25;;;7.05;;
2906;SDS011;1463;51.070;16.998;2023-04-29T02:58:21;14.23;;;6.82;;
2906;SDS011;1463;51.070;16.998;2023-04-29T03:00:48;10.57;;;6.55;;
2906;SDS011;1463;51.070;16.998;2023-04-29T03:03:17;11.85;;;7.40;;
2906;SDS011;1463;51.070;16.998;2023-04-29T03:05:44;9.30;;;6.68;;
2906;SDS011;1463;51.070;16.998;2023-04-29T03:08:12;7.85;;;6.00;;
2906;SDS011;1463;51.070;16.998;2023-04-29T03:10:39;10.43;;;7.13;;
2906;SDS011;1463;51.070;16.998;2023-04-29T03:13:07;8.88;;;5.80;;
2906;SDS011;1463;51.070;16.998;2023-04-29T03:15:34;8.30;;;5.85;;
2906;SDS011;1463;51.070;16.998;2023-04-29T03:18:03;8.43;;;5.85;;
2906;SDS011;1463;51.070;16.998;2023-04-29T03:20:32;10.18;;;6.25;;
2906;SDS011;1463;51.070;16.998;2023-04-29T03:22:59;11.68;;;6.03;;
2906;SDS011;1463;51.070;16.998;2023-04-29T03:25:27;8.55;;;6.10;;
2906;SDS011;1463;51.070;16.998;2023-04-29T03:27:55;8.75;;;6.20;;
2906;SDS011;1463;51.070;16.998;2023-04-29T03:30:23;10.23;;;5.90;;
2906;SDS011;1463;51.070;16.998;2023-04-29T03:32:50;13.18;;;6.50;;
2906;SDS011;1463;51.070;16.998;2023-04-29T03:35:18;8.40;;;5.30;;
2906;SDS011;1463;51.070;16.998;2023-04-29T03:37:47;10.88;;;6.38;;
2906;SDS011;1463;51.070;16.998;2023-04-29T03:40:14;10.63;;;6.75;;
2906;SDS011;1463;51.070;16.998;2023-04-29T03:42:41;8.50;;;5.53;;
2906;SDS011;1463;51.070;16.998;2023-04-29T03:45:09;14.73;;;6.43;;
2906;SDS011;1463;51.070;16.998;2023-04-29T03:47:38;9.95;;;6.38;;
2906;SDS011;1463;51.070;16.998;2023-04-29T03:50:06;11.77;;;6.78;;
2906;SDS011;1463;51.070;16.998;2023-04-29T03:52:34;12.23;;;6.65;;
2906;SDS011;1463;51.070;16.998;2023-04-29T03:55:03;16.80;;;8.40;;
2906;SDS011;1463;51.070;16.998;2023-04-29T03:57:31;12.55;;;8.07;;
2906;SDS011;1463;51.070;16.998;2023-04-29T03:59:59;14.75;;;7.25;;
2906;SDS011;1463;51.070;16.998;2023-04-29T04:02:26;10.93;;;7.05;;
2906;SDS011;1463;51.070;16.998;2023-04-29T04:04:53;12.93;;;7.18;;
2906;SDS011;1463;51.070;16.998;2023-04-29T04:07:23;12.95;;;5.63;;
2906;SDS011;1463;51.070;16.998;2023-04-29T04:09:50;14.82;;;7.30;;
2906;SDS011;1463;51.070;16.998;2023-04-29T04:12:19;11.15;;;7.22;;
2906;SDS011;1463;51.070;16.998;2023-04-29T04:14:46;9.98;;;6.28;;
2906;SDS011;1463;51.070;16.998;2023-04-29T04:17:14;9.50;;;5.90;;
2906;SDS011;1463;51.070;16.998;2023-04-29T04:19:41;16.65;;;6.95;;
2906;SDS011;1463;51.070;16.998;2023-04-29T04:22:08;9.00;;;5.88;;
2906;SDS011;1463;51.070;16.998;2023-04-29T04:24:36;11.50;;;6.20;;
2906;SDS011;1463;51.070;16.998;2023-04-29T04:27:03;10.05;;;5.55;;
2906;SDS011;1463;51.070;16.998;2023-04-29T04:29:32;8.38;;;5.25;;
2906;SDS011;1463;51.070;16.998;2023-04-29T04:32:00;8.60;;;6.05;;
2906;SDS011;1463;51.070;16.998;2023-04-29T04:34:27;7.38;;;5.45;;
2906;SDS011;1463;51.070;16.998;2023-04-29T04:36:54;9.30;;;6.28;;
2906;SDS011;1463;51.070;16.998;2023-04-29T04:39:22;10.88;;;6.63;;
2906;SDS011;1463;51.070;16.998;2023-04-29T04:41:49;11.07;;;6.95;;
2906;SDS011;1463;51.070;16.998;2023-04-29T04:44:17;12.38;;;6.63;;
2906;SDS011;1463;51.070;16.998;2023-04-29T04:46:45;9.30;;;6.20;;
2906;SDS011;1463;51.070;16.998;2023-04-29T04:49:13;12.40;;;6.05;;
2906;SDS011;1463;51.070;16.998;2023-04-29T04:51:42;12.82;;;6.07;;
2906;SDS011;1463;51.070;16.998;2023-04-29T04:54:10;9.00;;;6.00;;
2906;SDS011;1463;51.070;16.998;2023-04-29T04:56:37;11.73;;;6.68;;
2906;SDS011;1463;51.070;16.998;2023-04-29T04:59:05;12.63;;;7.72;;
2906;SDS011;1463;51.070;16.998;2023-04-29T05:01:32;13.05;;;7.55;;
2906;SDS011;1463;51.070;16.998;2023-04-29T05:04:01;10.95;;;7.50;;
2906;SDS011;1463;51.070;16.998;2023-04-29T05:06:29;15.70;;;6.32;;
2906;SDS011;1463;51.070;16.998;2023-04-29T05:08:56;9.02;;;5.72;;
2906;SDS011;1463;51.070;16.998;2023-04-29T05:11:23;12.48;;;5.75;;
2906;SDS011;1463;51.070;16.998;2023-04-29T05:13:51;10.68;;;6.13;;
2906;SDS011;1463;51.070;16.998;2023-04-29T05:16:18;8.85;;;6.85;;
2906;SDS011;1463;51.070;16.998;2023-04-29T05:18:45;9.27;;;6.32;;
2906;SDS011;1463;51.070;16.998;2023-04-29T05:21:14;14.95;;;7.80;;
2906;SDS011;1463;51.070;16.998;2023-04-29T05:23:42;10.20;;;6.85;;
2906;SDS011;1463;51.070;16.998;2023-04-29T05:26:10;10.65;;;6.10;;
2906;SDS011;1463;51.070;16.998;2023-04-29T05:28:37;12.40;;;6.28;;
2906;SDS011;1463;51.070;16.998;2023-04-29T05:31:05;14.27;;;7.38;;
2906;SDS011;1463;51.070;16.998;2023-04-29T05:33:32;11.77;;;6.65;;
2906;SDS011;1463;51.070;16.998;2023-04-29T05:35:59;12.65;;;7.28;;
2906;SDS011;1463;51.070;16.998;2023-04-29T05:38:28;9.77;;;7.00;;
2906;SDS011;1463;51.070;16.998;2023-04-29T05:40:56;16.30;;;6.55;;
2906;SDS011;1463;51.070;16.998;2023-04-29T05:43:23;6.88;;;5.38;;
2906;SDS011;1463;51.070;16.998;2023-04-29T05:45:51;12.63;;;6.43;;
2906;SDS011;1463;51.070;16.998;2023-04-29T05:48:19;9.68;;;5.43;;
2906;SDS011;1463;51.070;16.998;2023-04-29T05:50:46;11.27;;;6.80;;
2906;SDS011;1463;51.070;16.998;2023-04-29T05:53:13;14.30;;;9.40;;
2906;SDS011;1463;51.070;16.998;2023-04-29T05:55:42;11.57;;;7.25;;
2906;SDS011;1463;51.070;16.998;2023-04-29T05:58:10;9.27;;;7.25;;
2906;SDS011;1463;51.070;16.998;2023-04-29T06:00:39;8.80;;;5.93;;
2906;SDS011;1463;51.070;16.998;2023-04-29T06:03:08;8.45;;;5.82;;
2906;SDS011;1463;51.070;16.998;2023-04-29T06:05:36;11.68;;;6.70;;
2906;SDS011;1463;51.070;16.998;2023-04-29T06:08:04;12.20;;;6.30;;
2906;SDS011;1463;51.070;16.998;2023-04-29T06:10:31;9.20;;;6.25;;
2906;SDS011;1463;51.070;16.998;2023-04-29T06:13:02;10.02;;;6.32;;
2906;SDS011;1463;51.070;16.998;2023-04-29T06:15:30;9.35;;;6.03;;
2906;SDS011;1463;51.070;16.998;2023-04-29T06:17:58;9.27;;;5.85;;
2906;SDS011;1463;51.070;16.998;2023-04-29T06:20:25;10.20;;;6.10;;
2906;SDS011;1463;51.070;16.998;2023-04-29T06:22:53;10.25;;;6.72;;
2906;SDS011;1463;51.070;16.998;2023-04-29T06:25:20;8.40;;;6.25;;
2906;SDS011;1463;51.070;16.998;2023-04-29T06:27:48;9.95;;;7.18;;
2906;SDS011;1463;51.070;16.998;2023-04-29T06:30:17;9.15;;;6.68;;
2906;SDS011;1463;51.070;16.998;2023-04-29T06:32:44;11.05;;;6.47;;
2906;SDS011;1463;51.070;16.998;2023-04-29T06:35:12;13.15;;;6.25;;
2906;SDS011;1463;51.070;16.998;2023-04-29T06:37:39;9.38;;;6.10;;
2906;SDS011;1463;51.070;16.998;2023-04-29T06:40:07;8.40;;;5.93;;
2906;SDS011;1463;51.070;16.998;2023-04-29T06:42:35;8.32;;;6.07;;
2906;SDS011;1463;51.070;16.998;2023-04-29T06:45:03;16.33;;;6.57;;
2906;SDS011;1463;51.070;16.998;2023-04-29T06:47:33;8.15;;;5.88;;
2906;SDS011;1463;51.070;16.998;2023-04-29T06:50:00;11.45;;;6.25;;
2906;SDS011;1463;51.070;16.998;2023-04-29T06:52:28;12.55;;;6.75;;
2906;SDS011;1463;51.070;16.998;2023-04-29T06:54:56;11.30;;;7.18;;
2906;SDS011;1463;51.070;16.998;2023-04-29T06:57:24;11.63;;;6.65;;
2906;SDS011;1463;51.070;16.998;2023-04-29T06:59:52;11.90;;;5.63;;
2906;SDS011;1463;51.070;16.998;2023-04-29T07:02:19;9.10;;;6.72;;
2906;SDS011;1463;51.070;16.998;2023-04-29T07:04:48;8.50;;;6.50;;
2906;SDS011;1463;51.070;16.998;2023-04-29T07:07:16;11.63;;;6.32;;
2906;SDS011;1463;51.070;16.998;2023-04-29T07:09:44;7.97;;;6.53;;
2906;SDS011;1463;51.070;16.998;2023-04-29T07:12:11;8.80;;;6.28;;
2906;SDS011;1463;51.070;16.998;2023-04-29T07:14:38;12.15;;;6.85;;
2906;SDS011;1463;51.070;16.998;2023-04-29T07:17:06;10.23;;;6.05;;
2906;SDS011;1463;51.070;16.998;2023-04-29T07:19:33;8.93;;;6.47;;
2906;SDS011;1463;51.070;16.998;2023-04-29T07:22:02;8.93;;;6.03;;
2906;SDS011;1463;51.070;16.998;2023-04-29T07:24:30;11.50;;;6.97;;
2906;SDS011;1463;51.070;16.998;2023-04-29T07:26:57;9.90;;;6.15;;
2906;SDS011;1463;51.070;16.998;2023-04-29T07:29:24;11.00;;;6.07;;
2906;SDS011;1463;51.070;16.998;2023-04-29T07:31:52;8.45;;;5.97;;
2906;SDS011;1463;51.070;16.998;2023-04-29T07:34:20;11.10;;;7.00;;
2906;SDS011;1463;51.070;16.998;2023-04-29T07:36:47;8.40;;;6.25;;
2906;SDS011;1463;51.070;16.998;2023-04-29T07:39:16;11.45;;;6.85;;
2906;SDS011;1463;51.070;16.998;2023-04-29T07:41:43;12.93;;;8.15;;
2906;SDS011;1463;51.070;16.998;2023-04-29T07:44:11;15.68;;;7.53;;
2906;SDS011;1463;51.070;16.998;2023-04-29T07:46:38;11.40;;;6.55;;
2906;SDS011;1463;51.070;16.998;2023-04-29T07:49:06;11.90;;;6.80;;
2906;SDS011;1463;51.070;16.998;2023-04-29T07:51:34;11.43;;;6.40;;
2906;SDS011;1463;51.070;16.998;2023-04-29T07:54:02;9.02;;;6.30;;
2906;SDS011;1463;51.070;16.998;2023-04-29T07:56:31;10.05;;;6.78;;
2906;SDS011;1463;51.070;16.998;2023-04-29T07:58:58;10.70;;;5.85;;
2906;SDS011;1463;51.070;16.998;2023-04-29T08:01:26;10.20;;;6.30;;
2906;SDS011;1463;51.070;16.998;2023-04-29T08:03:53;12.00;;;6.90;;
2906;SDS011;1463;51.070;16.998;2023-04-29T08:06:21;7.82;;;5.60;;
2906;SDS011;1463;51.070;16.998;2023-04-29T08:08:48;6.38;;;5.20;;
2906;SDS011;1463;51.070;16.998;2023-04-29T08:11:16;8.20;;;5.13;;
2906;SDS011;1463;51.070;16.998;2023-04-29T08:13:45;9.35;;;5.43;;
2906;SDS011;1463;51.070;16.998;2023-04-29T08:16:13;13.50;;;5.55;;
2906;SDS011;1463;51.070;16.998;2023-04-29T08:18:40;5.93;;;4.90;;
2906;SDS011;1463;51.070;16.998;2023-04-29T08:21:08;6.45;;;4.57;;
2906;SDS011;1463;51.070;16.998;2023-04-29T08:23:36;7.85;;;5.55;;
2906;SDS011;1463;51.070;16.998;2023-04-29T08:26:04;6.65;;;4.22;;
2906;SDS011;1463;51.070;16.998;2023-04-29T08:28:32;10.32;;;6.35;;
2906;SDS011;1463;51.070;16.998;2023-04-29T08:31:01;9.88;;;5.80;;
2906;SDS011;1463;51.070;16.998;2023-04-29T08:33:31;8.38;;;5.75;;
2906;SDS011;1463;51.070;16.998;2023-04-29T08:35:58;7.95;;;5.22;;
2906;SDS011;1463;51.070;16.998;2023-04-29T08:38:27;10.30;;;4.70;;
2906;SDS011;1463;51.070;16.998;2023-04-29T08:40:56;7.32;;;4.82;;
2906;SDS011;1463;51.070;16.998;2023-04-29T08:43:23;7.95;;;4.60;;
2906;SDS011;1463;51.070;16.998;2023-04-29T08:45:52;10.50;;;6.20;;
2906;SDS011;1463;51.070;16.998;2023-04-29T08:48:21;11.65;;;7.20;;
2906;SDS011;1463;51.070;16.998;2023-04-29T08:50:49;13.63;;;6.80;;
2906;SDS011;1463;51.070;16.998;2023-04-29T08:53:16;14.75;;;8.75;;
2906;SDS011;1463;51.070;16.998;2023-04-29T08:55:45;12.07;;;8.27;;
2906;SDS011;1463;51.070;16.998;2023-04-29T08:58:14;9.40;;;7.38;;
2906;SDS011;1463;51.070;16.998;2023-04-29T09:00:42;11.63;;;8.00;;
2906;SDS011;1463;51.070;16.998;2023-04-29T09:03:11;14.38;;;7.45;;
2906;SDS011;1463;51.070;16.998;2023-04-29T09:05:44;11.48;;;6.90;;
2906;SDS011;1463;51.070;16.998;2023-04-29T09:08:15;9.60;;;6.55;;
2906;SDS011;1463;51.070;16.998;2023-04-29T09:10:43;11.15;;;6.80;;
2906;SDS011;1463;51.070;16.998;2023-04-29T09:13:21;12.55;;;7.65;;
2906;SDS011;1463;51.070;16.998;2023-04-29T09:15:50;12.88;;;8.43;;
2906;SDS011;1463;51.070;16.998;2023-04-29T09:21:15;13.30;;;8.10;;
2906;SDS011;1463;51.070;16.998;2023-04-29T09:23:44;11.23;;;7.72;;
2906;SDS011;1463;51.070;16.998;2023-04-29T09:26:12;12.95;;;8.02;;
2906;SDS011;1463;51.070;16.998;2023-04-29T09:28:40;12.30;;;7.57;;
2906;SDS011;1463;51.070;16.998;2023-04-29T09:31:09;11.02;;;6.60;;
2906;SDS011;1463;51.070;16.998;2023-04-29T09:33:48;15.95;;;7.47;;
2906;SDS011;1463;51.070;16.998;2023-04-29T09:36:37;10.73;;;6.63;;
2906;SDS011;1463;51.070;16.998;2023-04-29T09:39:10;8.10;;;5.47;;
2906;SDS011;1463;51.070;16.998;2023-04-29T09:41:56;9.63;;;5.80;;
2906;SDS011;1463;51.070;16.998;2023-04-29T09:44:28;7.13;;;4.93;;
2906;SDS011;1463;51.070;16.998;2023-04-29T09:46:57;6.63;;;4.30;;
2906;SDS011;1463;51.070;16.998;2023-04-29T09:49:27;7.00;;;4.15;;
2906;SDS011;1463;51.070;16.998;2023-04-29T09:51:59;5.13;;;3.33;;
2906;SDS011;1463;51.070;16.998;2023-04-29T09:54:29;5.15;;;3.53;;
2906;SDS011;1463;51.070;16.998;2023-04-29T09:56:58;5.38;;;3.85;;
2906;SDS011;1463;51.070;16.998;2023-04-29T09:59:26;8.25;;;4.57;;
2906;SDS011;1463;51.070;16.998;2023-04-29T10:01:54;5.10;;;3.42;;
2906;SDS011;1463;51.070;16.998;2023-04-29T10:04:23;4.25;;;3.10;;
2906;SDS011;1463;51.070;16.998;2023-04-29T10:06:52;5.28;;;3.58;;
2906;SDS011;1463;51.070;16.998;2023-04-29T10:09:22;7.30;;;3.90;;
2906;SDS011;1463;51.070;16.998;2023-04-29T10:11:51;4.65;;;3.60;;
2906;SDS011;1463;51.070;16.998;2023-04-29T10:14:19;7.68;;;3.88;;
2906;SDS011;1463;51.070;16.998;2023-04-29T10:16:49;6.70;;;4.40;;
2906;SDS011;1463;51.070;16.998;2023-04-29T10:19:25;6.07;;;4.68;;
2906;SDS011;1463;51.070;16.998;2023-04-29T10:21:59;6.35;;;3.22;;
2906;SDS011;1463;51.070;16.998;2023-04-29T10:24:36;7.22;;;3.95;;
2906;SDS011;1463;51.070;16.998;2023-04-29T10:27:05;6.72;;;4.32;;
2906;SDS011;1463;51.070;16.998;2023-04-29T10:29:36;7.55;;;3.70;;
2906;SDS011;1463;51.070;16.998;2023-04-29T10:32:06;9.30;;;4.50;;
2906;SDS011;1463;51.070;16.998;2023-04-29T10:34:35;5.45;;;3.42;;
2906;SDS011;1463;51.070;16.998;2023-04-29T10:37:04;5.53;;;4.28;;
2906;SDS011;1463;51.070;16.998;2023-04-29T10:39:39;4.93;;;2.92;;
2906;SDS011;1463;51.070;16.998;2023-04-29T10:42:15;4.50;;;2.85;;
2906;SDS011;1463;51.070;16.998;2023-04-29T10:45:15;4.80;;;2.88;;
2906;SDS011;1463;51.070;16.998;2023-04-29T10:50:58;3.55;;;2.50;;
2906;SDS011;1463;51.070;16.998;2023-04-29T10:53:27;5.75;;;2.72;;
2906;SDS011;1463;51.070;16.998;2023-04-29T10:55:57;3.45;;;2.20;;
2906;SDS011;1463;51.070;16.998;2023-04-29T10:58:36;5.13;;;3.03;;
2906;SDS011;1463;51.070;16.998;2023-04-29T11:01:05;4.65;;;2.80;;
2906;SDS011;1463;51.070;16.998;2023-04-29T11:03:47;4.47;;;2.50;;
2906;SDS011;1463;51.070;16.998;2023-04-29T11:06:19;4.00;;;2.70;;
2906;SDS011;1463;51.070;16.998;2023-04-29T11:08:58;3.55;;;2.40;;
2906;SDS011;1463;51.070;16.998;2023-04-29T11:11:40;4.78;;;2.78;;
2906;SDS011;1463;51.070;16.998;2023-04-29T11:14:08;3.87;;;2.80;;
2906;SDS011;1463;51.070;16.998;2023-04-29T11:16:37;4.17;;;2.20;;
2906;SDS011;1463;51.070;16.998;2023-04-29T11:19:13;3.37;;;2.40;;
2906;SDS011;1463;51.070;16.998;2023-04-29T11:21:41;4.10;;;1.90;;
2906;SDS011;1463;51.070;16.998;2023-04-29T11:24:11;4.27;;;2.03;;
2906;SDS011;1463;51.070;16.998;2023-04-29T11:26:41;3.03;;;1.80;;
2906;SDS011;1463;51.070;16.998;2023-04-29T11:29:10;4.97;;;2.33;;
2906;SDS011;1463;51.070;16.998;2023-04-29T11:31:38;2.90;;;1.87;;
2906;SDS011;1463;51.070;16.998;2023-04-29T11:34:05;4.80;;;2.50;;
2906;SDS011;1463;51.070;16.998;2023-04-29T11:36:33;4.07;;;1.73;;
2906;SDS011;1463;51.070;16.998;2023-04-29T11:39:02;3.00;;;2.17;;
2906;SDS011;1463;51.070;16.998;2023-04-29T11:41:30;4.13;;;1.97;;
2906;SDS011;1463;51.070;16.998;2023-04-29T11:44:01;3.57;;;2.07;;
2906;SDS011;1463;51.070;16.998;2023-04-29T11:46:31;4.90;;;2.60;;
2906;SDS011;1463;51.070;16.998;2023-04-29T11:49:00;3.50;;;2.13;;
2906;SDS011;1463;51.070;16.998;2023-04-29T11:51:28;3.63;;;2.50;;
2906;SDS011;1463;51.070;16.998;2023-04-29T11:53:56;4.73;;;3.13;;
2906;SDS011;1463;51.070;16.998;2023-04-29T11:56:24;5.57;;;2.70;;
2906;SDS011;1463;51.070;16.998;2023-04-29T11:58:54;3.70;;;2.60;;
2906;SDS011;1463;51.070;16.998;2023-04-29T12:01:26;4.93;;;2.80;;
2906;SDS011;1463;51.070;16.998;2023-04-29T12:03:56;4.20;;;3.23;;
2906;SDS011;1463;51.070;16.998;2023-04-29T12:06:26;4.30;;;2.67;;
2906;SDS011;1463;51.070;16.998;2023-04-29T12:08:57;4.10;;;2.70;;
2906;SDS011;1463;51.070;16.998;2023-04-29T12:11:25;4.37;;;2.70;;
2906;SDS011;1463;51.070;16.998;2023-04-29T12:13:53;5.35;;;3.40;;
2906;SDS011;1463;51.070;16.998;2023-04-29T12:16:21;5.60;;;2.85;;
2906;SDS011;1463;51.070;16.998;2023-04-29T12:18:51;5.32;;;2.88;;
2906;SDS011;1463;51.070;16.998;2023-04-29T12:21:20;4.70;;;3.10;;
2906;SDS011;1463;51.070;16.998;2023-04-29T12:23:48;12.00;;;4.38;;
2906;SDS011;1463;51.070;16.998;2023-04-29T12:26:17;5.07;;;3.78;;
2906;SDS011;1463;51.070;16.998;2023-04-29T12:28:47;5.32;;;3.65;;
2906;SDS011;1463;51.070;16.998;2023-04-29T12:31:14;5.50;;;3.85;;
2906;SDS011;1463;51.070;16.998;2023-04-29T12:33:42;8.88;;;4.25;;
2906;SDS011;1463;51.070;16.998;2023-04-29T12:36:16;4.30;;;2.97;;
2906;SDS011;1463;51.070;16.998;2023-04-29T12:38:45;5.72;;;4.05;;
2906;SDS011;1463;51.070;16.998;2023-04-29T12:41:13;7.40;;;4.57;;
2906;SDS011;1463;51.070;16.998;2023-04-29T12:43:41;4.53;;;2.78;;
2906;SDS011;1463;51.070;16.998;2023-04-29T12:46:09;3.92;;;2.60;;
2906;SDS011;1463;51.070;16.998;2023-04-29T12:48:38;2.87;;;1.80;;
2906;SDS011;1463;51.070;16.998;2023-04-29T12:51:07;3.00;;;2.33;;
2906;SDS011;1463;51.070;16.998;2023-04-29T12:53:37;3.17;;;1.83;;
2906;SDS011;1463;51.070;16.998;2023-04-29T12:56:05;4.20;;;1.90;;
2906;SDS011;1463;51.070;16.998;2023-04-29T12:58:33;3.77;;;2.40;;
2906;SDS011;1463;51.070;16.998;2023-04-29T13:01:00;3.30;;;2.10;;
2906;SDS011;1463;51.070;16.998;2023-04-29T13:03:28;2.87;;;1.50;;
2906;SDS011;1463;51.070;16.998;2023-04-29T13:05:56;3.30;;;2.10;;
2906;SDS011;1463;51.070;16.998;2023-04-29T13:08:23;3.30;;;1.73;;
2906;SDS011;1463;51.070;16.998;2023-04-29T13:10:53;9.23;;;2.60;;
2906;SDS011;1463;51.070;16.998;2023-04-29T13:13:20;3.97;;;2.33;;
2906;SDS011;1463;51.070;16.998;2023-04-29T13:15:48;3.37;;;1.80;;
2906;SDS011;1463;51.070;16.998;2023-04-29T13:18:15;3.03;;;1.80;;
2906;SDS011;1463;51.070;16.998;2023-04-29T13:20:42;2.70;;;1.87;;
2906;SDS011;1463;51.070;16.998;2023-04-29T13:23:10;2.70;;;1.57;;
2906;SDS011;1463;51.070;16.998;2023-04-29T13:25:37;3.50;;;2.43;;
2906;SDS011;1463;51.070;16.998;2023-04-29T13:28:07;3.40;;;2.37;;
2906;SDS011;1463;51.070;16.998;2023-04-29T13:30:34;4.10;;;2.27;;
2906;SDS011;1463;51.070;16.998;2023-04-29T13:33:02;4.10;;;2.10;;
2906;SDS011;1463;51.070;16.998;2023-04-29T13:35:29;3.10;;;2.30;;
2906;SDS011;1463;51.070;16.998;2023-04-29T13:37:56;3.30;;;1.73;;
2906;SDS011;1463;51.070;16.998;2023-04-29T13:40:25;4.83;;;2.00;;
2906;SDS011;1463;51.070;16.998;2023-04-29T13:42:52;3.20;;;2.00;;
2906;SDS011;1463;51.070;16.998;2023-04-29T13:45:21;3.30;;;1.73;;
2906;SDS011;1463;51.070;16.998;2023-04-29T13:47:50;3.33;;;1.97;;
2906;SDS011;1463;51.070;16.998;2023-04-29T13:50:17;3.10;;;2.10;;
2906;SDS011;1463;51.070;16.998;2023-04-29T13:52:45;3.43;;;2.07;;
2906;SDS011;1463;51.070;16.998;2023-04-29T13:55:13;2.77;;;1.40;;
2906;SDS011;1463;51.070;16.998;2023-04-29T13:57:40;2.65;;;1.63;;
2906;SDS011;1463;51.070;16.998;2023-04-29T14:00:08;2.80;;;1.73;;
2906;SDS011;1463;51.070;16.998;2023-04-29T14:02:38;3.20;;;1.87;;
2906;SDS011;1463;51.070;16.998;2023-04-29T14:05:06;3.53;;;1.77;;
2906;SDS011;1463;51.070;16.998;2023-04-29T14:07:34;4.40;;;2.60;;
2906;SDS011;1463;51.070;16.998;2023-04-29T14:10:01;3.10;;;2.10;;
2906;SDS011;1463;51.070;16.998;2023-04-29T14:12:29;3.58;;;1.55;;
2906;SDS011;1463;51.070;16.998;2023-04-29T14:14:57;3.05;;;1.65;;
2906;SDS011;1463;51.070;16.998;2023-04-29T14:17:24;5.20;;;2.20;;
2906;SDS011;1463;51.070;16.998;2023-04-29T14:19:54;2.58;;;1.50;;
2906;SDS011;1463;51.070;16.998;2023-04-29T14:22:21;3.20;;;1.10;;
2906;SDS011;1463;51.070;16.998;2023-04-29T14:24:49;2.55;;;1.10;;
2906;SDS011;1463;51.070;16.998;2023-04-29T14:27:16;2.70;;;1.53;;
2906;SDS011;1463;51.070;16.998;2023-04-29T14:29:45;2.87;;;2.00;;
2906;SDS011;1463;51.070;16.998;2023-04-29T14:32:13;3.40;;;1.80;;
2906;SDS011;1463;51.070;16.998;2023-04-29T14:34:40;3.30;;;1.70;;
2906;SDS011;1463;51.070;16.998;2023-04-29T14:37:09;3.08;;;1.60;;
2906;SDS011;1463;51.070;16.998;2023-04-29T14:39:36;3.78;;;2.40;;
2906;SDS011;1463;51.070;16.998;2023-04-29T14:42:04;4.93;;;3.08;;
2906;SDS011;1463;51.070;16.998;2023-04-29T14:44:32;4.25;;;2.65;;
2906;SDS011;1463;51.070;16.998;2023-04-29T14:47:00;4.45;;;2.70;;
2906;SDS011;1463;51.070;16.998;2023-04-29T14:49:28;3.95;;;2.40;;
2906;SDS011;1463;51.070;16.998;2023-04-29T14:51:55;5.95;;;3.13;;
2906;SDS011;1463;51.070;16.998;2023-04-29T14:54:25;6.97;;;3.40;;
2906;SDS011;1463;51.070;16.998;2023-04-29T14:56:53;5.10;;;3.20;;
2906;SDS011;1463;51.070;16.998;2023-04-29T14:59:21;5.50;;;3.45;;
2906;SDS011;1463;51.070;16.998;2023-04-29T15:01:48;5.78;;;3.03;;
2906;SDS011;1463;51.070;16.998;2023-04-29T15:04:15;3.00;;;2.10;;
2906;SDS011;1463;51.070;16.998;2023-04-29T15:06:43;4.20;;;2.85;;
2906;SDS011;1463;51.070;16.998;2023-04-29T15:09:10;5.25;;;3.00;;
2906;SDS011;1463;51.070;16.998;2023-04-29T15:11:39;4.50;;;2.60;;